EGPD/ABZ METAR and TAF weather

Enter ICAO airport designator
Station Type Date Time Source
EGPD METAR 2021/07/27 20:50 UTC NOAA

EGPD 272050Z AUTO 08004KT 8000 BKN004/// OVC031/// //////CB 16/16 Q1006 NOSIG


Station Type Date Time Source
EGPD Decoded METAR 2021/07/27 20:50 UTC NOAA

Aberdeen / Dyce, United Kingdom (EGPD) 57-12N 002-13W 0M
Jul 27, 2021 - 04:50 PM EDT / 2021.07.27 2050 UTC
Wind: from the E (080 degrees) at 5 MPH (4 KT):0
Visibility: 4 mile(s):0
Sky conditions: overcast
Weather: Cumulonimbus clouds observed
Temperature: 60 F (16 C)
Dew Point: 60 F (16 C)
Relative Humidity: 100%
Pressure (altimeter): 29.71 in. Hg (1006 hPa)
ob: EGPD 272050Z AUTO 08004KT 8000 BKN004/// OVC031/// //////CB 16/16 Q1006 NOSIG
cycle: 21

Station Type Date Time Source
EGPD TAF 2021/07/27 20:07 UTC NOAA

TAF
AMD EGPD 271959Z 2720/2818 12005KT 9999 BKN010
TEMPO 2720/2723 6000 BKN004 PROB30
TEMPO 2720/2721 SCT012 PROB40
TEMPO 2723/2810 4000 SHRA BR BKN003
TEMPO 2810/2816 3000 +SHRAGS BKN003

Example: see airport list